Time;durP1;ratioP1;P1;durP2;ratioP2;P2;SDS_P1;SDS_P2;PMS_P1;PMS_P2;Temp;Humidity;BMP_temperature;BMP_pressure;BME280_temperature;BME280_humidity;BME280_pressure;Samples;Min_cycle;Max_cycle;Signal;HPM_P1;HPM_P2
2023/07/08 00:02:13;;;;;;;4.25;2.40;;;;;;;20.65;100.00;100512.16;5028232;28;20108;-63
2023/07/08 00:04:40;;;;;;;5.28;1.70;;;;;;;20.64;100.00;100509.72;5030064;28;20617;-60
2023/07/08 00:07:09;;;;;;;2.78;1.95;;;;;;;20.61;100.00;100508.34;5030857;28;20039;-60
2023/07/08 00:09:34;;;;;;;3.00;1.85;;;;;;;20.59;100.00;100507.78;5026247;28;20090;-62
2023/07/08 00:11:59;;;;;;;4.18;2.08;;;;;;;20.56;100.00;100508.31;5031573;28;20029;-63
2023/07/08 00:14:25;;;;;;;3.28;1.33;;;;;;;20.64;100.00;100510.53;5028511;28;20497;-57
2023/07/08 00:16:51;;;;;;;1.45;1.33;;;;;;;20.55;100.00;100512.06;5029496;28;20029;-60
2023/07/08 00:19:19;;;;;;;2.85;1.48;;;;;;;20.45;100.00;100506.56;5026605;28;20030;-60
2023/07/08 00:21:45;;;;;;;2.53;1.58;;;;;;;20.39;100.00;100504.88;5038447;28;20199;-58
2023/07/08 00:24:10;;;;;;;3.92;1.48;;;;;;;20.38;100.00;100516.72;5037245;28;20037;-57
2023/07/08 00:26:36;;;;;;;2.15;1.75;;;;;;;20.31;100.00;100502.66;5029759;28;20026;-58
2023/07/08 00:29:02;;;;;;;2.35;1.85;;;;;;;20.40;100.00;100499.25;5033774;28;20486;-62
2023/07/08 00:31:27;;;;;;;1.60;1.33;;;;;;;20.34;100.00;100507.53;5031393;28;20040;-62
2023/07/08 00:33:56;;;;;;;2.67;2.33;;;;;;;20.29;100.00;100502.09;5029388;28;20490;-61
2023/07/08 00:36:23;;;;;;;4.50;1.58;;;;;;;20.21;100.00;100500.66;5029193;28;20029;-62
2023/07/08 00:38:49;;;;;;;3.38;1.95;;;;;;;20.19;100.00;100497.44;5035770;28;20033;-61
2023/07/08 00:41:21;;;;;;;5.25;2.42;;;;;;;19.98;100.00;100494.53;5029273;28;20099;-62
2023/07/08 00:43:57;;;;;;;3.38;2.08;;;;;;;19.91;100.00;100493.13;5034027;28;20017;-61
2023/07/08 00:46:32;;;;;;;2.40;1.40;;;;;;;19.89;100.00;100484.47;5032125;28;20112;-64
2023/07/08 00:49:19;;;;;;;11.68;2.78;;;;;;;19.82;100.00;100488.16;5033099;28;20049;-61
2023/07/08 00:51:44;;;;;;;6.03;2.58;;;;;;;19.83;100.00;100487.09;5035548;28;20033;-60
2023/07/08 00:54:14;;;;;;;1.85;1.20;;;;;;;19.93;100.00;100488.28;5032413;28;20100;-59
2023/07/08 00:56:46;;;;;;;5.20;1.83;;;;;;;19.90;100.00;100478.00;5028031;28;20124;-60
2023/07/08 00:59:17;;;;;;;;;;;;;;;20.12;100.00;100468.03;5030514;28;20414;-64
2023/07/08 01:01:43;;;;;;;5.15;1.77;;;;;;;20.02;100.00;100478.69;5026274;28;19921;-57
2023/07/08 01:04:20;;;;;;;2.83;1.58;;;;;;;20.04;100.00;100455.03;5029324;28;20062;-63
2023/07/08 01:06:52;;;;;;;4.38;1.63;;;;;;;19.93;100.00;100464.88;5028118;28;20382;-54
2023/07/08 01:09:18;;;;;;;5.13;2.40;;;;;;;19.94;100.00;100455.75;5032916;28;20083;-63
2023/07/08 01:11:44;;;;;;;2.63;2.00;;;;;;;19.94;100.00;100466.50;5026485;28;20021;-54
2023/07/08 01:14:15;;;;;;;3.13;1.52;;;;;;;20.03;100.00;100465.00;5030612;28;20119;-59
2023/07/08 01:16:41;;;;;;;2.38;1.38;;;;;;;20.03;100.00;100467.69;5040667;28;20028;-62
2023/07/08 01:19:14;;;;;;;2.03;1.35;;;;;;;19.94;100.00;100469.19;5035644;28;20072;-61
2023/07/08 01:21:54;;;;;;;3.50;1.67;;;;;;;19.85;100.00;100462.63;5033710;28;20112;-62
2023/07/08 01:24:19;;;;;;;1.98;1.58;;;;;;;19.79;100.00;100472.53;5035660;28;20060;-60
2023/07/08 01:26:46;;;;;;;2.58;1.58;;;;;;;19.80;100.00;100476.84;5041674;28;20026;-61
2023/07/08 01:29:12;;;;;;;2.90;1.65;;;;;;;19.69;100.00;100475.09;5029656;28;20025;-61
2023/07/08 01:31:38;;;;;;;4.28;2.05;;;;;;;19.70;100.00;100465.19;5032782;28;20034;-58
2023/07/08 01:34:05;;;;;;;2.90;1.67;;;;;;;19.75;100.00;100465.22;5028887;28;20965;-62
2023/07/08 01:36:36;;;;;;;4.15;2.15;;;;;;;19.76;100.00;100466.84;5029919;28;20114;-59
2023/07/08 01:39:02;;;;;;;7.10;2.25;;;;;;;19.77;100.00;100463.91;5029535;28;20477;-61
2023/07/08 01:41:27;;;;;;;2.58;1.92;;;;;;;19.71;100.00;100464.09;5039314;28;20039;-57
2023/07/08 01:43:53;;;;;;;4.22;2.72;;;;;;;19.71;100.00;100461.41;5033576;28;20052;-61
2023/07/08 01:46:23;;;;;;;2.85;1.85;;;;;;;19.75;100.00;100466.03;5030646;28;20111;-60
2023/07/08 01:48:53;;;;;;;2.28;1.55;;;;;;;19.82;100.00;100472.00;5031875;28;20100;-62
2023/07/08 01:51:19;;;;;;;4.10;2.45;;;;;;;19.88;100.00;100482.84;5036204;28;20025;-61
2023/07/08 01:53:45;;;;;;;5.25;1.95;;;;;;;19.92;100.00;100475.88;5037205;28;20033;-62
2023/07/08 01:56:12;;;;;;;4.10;1.77;;;;;;;20.01;100.00;100469.00;5033277;28;20033;-62
2023/07/08 01:58:38;;;;;;;8.80;2.67;;;;;;;19.94;100.00;100479.94;5033204;28;20037;-59
2023/07/08 02:01:03;;;;;;;4.38;2.10;;;;;;;19.95;100.00;100491.53;5027481;28;20050;-58
2023/07/08 02:03:29;;;;;;;2.83;1.83;;;;;;;19.97;100.00;100487.53;5031603;28;20065;-59
2023/07/08 02:05:54;;;;;;;1.85;1.73;;;;;;;20.00;100.00;100496.97;5030959;28;20036;-62
2023/07/08 02:08:20;;;;;;;2.70;1.90;;;;;;;19.85;100.00;100511.06;5026421;28;20033;-61
2023/07/08 02:10:50;;;;;;;3.53;1.58;;;;;;;19.85;100.00;100507.56;5036099;28;20071;-59
2023/07/08 02:13:15;;;;;;;2.13;1.85;;;;;;;19.87;100.00;100508.13;5031192;28;20089;-58
2023/07/08 02:15:41;;;;;;;5.35;2.38;;;;;;;19.87;100.00;100490.09;5028245;28;20053;-59
2023/07/08 02:18:06;;;;;;;2.67;2.05;;;;;;;19.95;100.00;100486.16;5025679;28;20580;-63
2023/07/08 02:20:31;;;;;;;4.22;1.63;;;;;;;19.95;100.00;100481.56;5029921;28;20907;-61
2023/07/08 02:22:57;;;;;;;3.38;1.60;;;;;;;20.11;100.00;100484.41;5032518;28;20029;-61
2023/07/08 02:25:23;;;;;;;1.80;1.60;;;;;;;20.22;100.00;100483.47;5031037;28;20024;-61
2023/07/08 02:27:48;;;;;;;2.85;1.90;;;;;;;20.23;100.00;100477.00;5033100;28;20520;-61
2023/07/08 02:30:13;;;;;;;6.57;1.58;;;;;;;20.26;100.00;100471.09;5027450;28;20044;-59
2023/07/08 02:32:39;;;;;;;7.35;2.05;;;;;;;20.31;100.00;100473.03;5023835;28;20035;-65
2023/07/08 02:35:06;;;;;;;2.42;1.83;;;;;;;20.30;100.00;100464.16;5026761;28;20064;-64
2023/07/08 02:37:32;;;;;;;4.10;1.70;;;;;;;20.00;100.00;100441.25;5025752;28;20031;-64
2023/07/08 02:39:57;;;;;;;2.70;1.63;;;;;;;19.97;100.00;100441.78;5025623;28;20437;-61
2023/07/08 02:42:23;;;;;;;8.93;2.50;;;;;;;19.84;100.00;100436.81;5032605;28;20506;-61
2023/07/08 02:44:48;;;;;;;2.50;1.95;;;;;;;19.83;100.00;100430.63;5036768;28;20037;-58
2023/07/08 02:47:13;;;;;;;2.53;2.05;;;;;;;19.83;100.00;100440.56;5035550;28;20056;-59
2023/07/08 02:49:38;;;;;;;3.13;2.10;;;;;;;19.83;100.00;100446.75;5030025;28;20587;-61
2023/07/08 02:52:04;;;;;;;4.03;1.88;;;;;;;19.77;100.00;100452.31;5026234;28;20025;-60
2023/07/08 02:54:29;;;;;;;6.82;2.63;;;;;;;19.83;100.00;100457.50;5036002;28;20122;-57
2023/07/08 02:56:55;;;;;;;3.58;2.22;;;;;;;19.89;100.00;100452.19;5025170;28;20041;-60
2023/07/08 02:59:20;;;;;;;3.97;1.95;;;;;;;19.87;100.00;100454.31;5026870;28;20032;-59
2023/07/08 03:01:46;;;;;;;3.78;1.95;;;;;;;19.93;100.00;100455.97;5027840;28;20724;-57
2023/07/08 03:04:13;;;;;;;9.65;1.88;;;;;;;19.74;100.00;100464.41;5028158;28;20433;-60
2023/07/08 03:06:40;;;;;;;2.88;1.80;;;;;;;19.75;100.00;100459.84;5032464;28;20509;-57
2023/07/08 03:09:06;;;;;;;6.30;2.33;;;;;;;19.69;100.00;100466.22;5028971;28;20033;-57
2023/07/08 03:11:31;;;;;;;7.38;2.05;;;;;;;19.73;100.00;100464.66;5023622;28;20029;-55
2023/07/08 03:13:56;;;;;;;2.47;1.83;;;;;;;19.79;100.00;100461.75;5033826;28;20026;-60
2023/07/08 03:16:21;;;;;;;1.98;1.70;;;;;;;19.87;100.00;100468.56;5034064;28;20029;-58
2023/07/08 03:18:47;;;;;;;2.53;1.98;;;;;;;20.02;100.00;100471.44;5027046;28;20025;-55
2023/07/08 03:21:14;;;;;;;5.43;2.60;;;;;;;20.03;100.00;100466.84;5027469;28;20037;-58
2023/07/08 03:23:40;;;;;;;4.20;2.15;;;;;;;20.12;100.00;100459.94;5024565;28;20036;-58
2023/07/08 03:26:06;;;;;;;1.55;1.00;;;;;;;20.27;100.00;100460.09;5029771;28;20033;-60
2023/07/08 03:28:31;;;;;;;3.10;2.15;;;;;;;20.30;100.00;100449.88;5030716;28;20032;-60
2023/07/08 03:30:57;;;;;;;17.95;2.53;;;;;;;20.33;100.00;100455.56;5031180;28;20468;-59
2023/07/08 03:33:22;;;;;;;3.92;2.13;;;;;;;19.65;100.00;100457.81;5038263;28;20055;-56
2023/07/08 03:35:48;;;;;;;3.63;2.92;;;;;;;19.46;100.00;100462.69;5033623;28;20025;-54
2023/07/08 03:38:13;;;;;;;8.25;2.53;;;;;;;19.34;100.00;100460.16;5030864;28;20489;-58
2023/07/08 03:40:38;;;;;;;4.85;2.50;;;;;;;19.17;100.00;100460.19;5031505;28;20040;-60
2023/07/08 03:43:04;;;;;;;2.92;2.13;;;;;;;19.47;100.00;100468.91;5034192;28;20106;-53
2023/07/08 03:45:29;;;;;;;2.13;1.83;;;;;;;19.52;100.00;100455.53;5034897;28;20497;-62
2023/07/08 03:47:54;;;;;;;3.47;2.38;;;;;;;19.55;100.00;100455.00;5040985;28;20032;-60
2023/07/08 03:50:25;;;;;;;2.67;1.85;;;;;;;19.60;100.00;100450.50;5030909;28;20053;-62
2023/07/08 03:52:54;;;;;;;3.35;2.35;;;;;;;19.60;100.00;100450.50;5028036;28;20030;-58
2023/07/08 03:55:19;;;;;;;2.17;2.00;;;;;;;19.50;100.00;100452.25;5034678;28;21421;-60
2023/07/08 03:57:44;;;;;;;3.63;2.17;;;;;;;19.42;100.00;100458.91;5036064;28;20040;-58
2023/07/08 04:00:14;;;;;;;3.95;1.90;;;;;;;19.35;100.00;100463.63;5032511;28;20112;-57
2023/07/08 04:02:40;;;;;;;5.10;2.78;;;;;;;19.48;100.00;100457.88;5041730;28;20057;-59
2023/07/08 04:05:06;;;;;;;1.63;1.48;;;;;;;19.51;100.00;100460.06;5037014;28;20470;-60
2023/07/08 04:07:33;;;;;;;4.97;2.60;;;;;;;19.48;100.00;100460.56;5037690;28;20037;-59
2023/07/08 04:09:58;;;;;;;5.13;2.20;;;;;;;19.44;100.00;100454.09;5038635;28;20021;-57
2023/07/08 04:12:24;;;;;;;5.00;2.15;;;;;;;19.29;100.00;100456.59;5035453;28;20389;-57
2023/07/08 04:14:49;;;;;;;3.63;2.10;;;;;;;19.40;100.00;100461.81;5038379;28;21767;-59
2023/07/08 04:17:16;;;;;;;6.15;2.67;;;;;;;19.04;100.00;100470.47;5041569;28;20390;-59
2023/07/08 04:19:43;;;;;;;3.15;1.67;;;;;;;19.09;100.00;100484.00;5032662;28;20022;-55
2023/07/08 04:22:09;;;;;;;3.13;1.88;;;;;;;19.05;100.00;100480.16;5039689;28;20086;-58
2023/07/08 04:24:35;;;;;;;5.93;2.08;;;;;;;19.09;100.00;100479.41;5032701;28;20041;-51
2023/07/08 04:27:00;;;;;;;2.10;1.48;;;;;;;19.07;100.00;100484.22;5039062;28;20072;-57
2023/07/08 04:29:26;;;;;;;3.58;2.28;;;;;;;19.12;100.00;100484.28;5031918;28;20034;-61
2023/07/08 04:31:51;;;;;;;3.63;2.22;;;;;;;19.09;100.00;100489.34;5033264;28;20438;-61
2023/07/08 04:34:17;;;;;;;3.58;2.17;;;;;;;19.13;100.00;100485.13;5033850;28;20029;-60
2023/07/08 04:36:43;;;;;;;5.90;2.35;;;;;;;19.13;100.00;100487.81;5035094;28;20454;-61
2023/07/08 04:39:09;;;;;;;1.45;1.13;;;;;;;18.96;100.00;100485.16;5043887;28;20438;-59
2023/07/08 04:41:40;;;;;;;4.80;2.20;;;;;;;19.25;100.00;100483.13;5039999;28;20140;-60
2023/07/08 04:44:07;;;;;;;6.20;1.63;;;;;;;19.30;100.00;100493.13;5035109;28;20584;-58
2023/07/08 04:46:38;;;;;;;2.20;2.00;;;;;;;19.37;100.00;100491.91;5036696;28;20069;-60
2023/07/08 04:49:09;;;;;;;3.55;2.28;;;;;;;19.15;100.00;100493.72;5044270;28;20037;-57
2023/07/08 04:51:35;;;;;;;3.20;1.77;;;;;;;19.30;100.00;100491.25;5036088;28;20041;-62
2023/07/08 04:54:01;;;;;;;2.22;1.88;;;;;;;18.96;100.00;100490.53;5043570;28;20360;-57
2023/07/08 04:56:46;;;;;;;3.45;2.45;;;;;;;19.12;100.00;100496.91;5032595;28;20033;-60
2023/07/08 04:59:14;;;;;;;2.40;2.00;;;;;;;18.79;100.00;100495.88;5041431;28;20425;-62
2023/07/08 05:01:40;;;;;;;2.17;1.85;;;;;;;18.75;100.00;100497.47;5035453;28;20044;-61
2023/07/08 05:04:06;;;;;;;5.88;2.45;;;;;;;18.62;100.00;100501.25;5033571;28;20034;-55
2023/07/08 05:06:34;;;;;;;2.95;1.60;;;;;;;18.55;100.00;100499.78;5029753;28;20160;-59
2023/07/08 05:09:00;;;;;;;3.72;1.85;;;;;;;18.76;100.00;100515.19;5036160;28;20640;-60
2023/07/08 05:11:26;;;;;;;3.40;2.08;;;;;;;18.81;100.00;100509.91;5035285;28;20029;-59
2023/07/08 05:13:51;;;;;;;1.67;1.58;;;;;;;18.90;100.00;100508.44;5044513;28;20573;-59
2023/07/08 05:16:16;;;;;;;2.72;2.22;;;;;;;19.11;100.00;100522.19;5030163;28;20390;-57
2023/07/08 05:18:42;;;;;;;3.45;2.60;;;;;;;19.16;100.00;100511.50;5034775;28;20125;-59
2023/07/08 05:21:09;;;;;;;3.10;2.47;;;;;;;19.45;100.00;100522.13;5030840;28;20120;-60
2023/07/08 05:23:35;;;;;;;2.95;1.63;;;;;;;19.53;100.00;100513.59;5035337;28;20075;-60
2023/07/08 05:26:02;;;;;;;2.40;2.03;;;;;;;19.24;100.00;100526.41;5032530;28;20542;-61
2023/07/08 05:28:27;;;;;;;1.85;1.73;;;;;;;19.12;100.00;100521.91;5037619;28;20098;-59
2023/07/08 05:30:56;;;;;;;6.22;2.70;;;;;;;19.33;100.00;100522.22;5030070;28;20429;-59
2023/07/08 05:33:26;;;;;;;2.17;1.98;;;;;;;19.72;100.00;100509.59;5033672;28;20119;-56
2023/07/08 05:35:52;;;;;;;2.15;1.50;;;;;;;20.16;100.00;100514.91;5031691;28;20033;-56
2023/07/08 05:38:18;;;;;;;9.38;1.73;;;;;;;20.52;100.00;100511.72;5034357;28;20047;-59
2023/07/08 05:40:49;;;;;;;4.78;2.63;;;;;;;20.73;100.00;100515.44;5029423;28;20025;-56
2023/07/08 05:43:14;;;;;;;4.07;1.83;;;;;;;20.99;100.00;100509.19;5026323;28;20029;-60
2023/07/08 05:45:39;;;;;;;6.55;2.10;;;;;;;20.89;100.00;100501.81;5033496;28;20040;-56
2023/07/08 05:48:05;;;;;;;2.90;2.15;;;;;;;20.97;100.00;100508.63;5033633;28;20430;-58
2023/07/08 05:50:30;;;;;;;4.72;1.95;;;;;;;21.35;100.00;100496.72;5030370;28;20112;-58
2023/07/08 05:52:55;;;;;;;3.92;2.00;;;;;;;21.57;100.00;100506.53;5036202;28;20055;-60
2023/07/08 05:55:21;;;;;;;3.05;2.13;;;;;;;21.63;100.00;100505.47;5034897;28;20561;-60
2023/07/08 05:57:46;;;;;;;2.92;2.08;;;;;;;21.65;100.00;100508.72;5033947;28;20564;-59
2023/07/08 06:00:12;;;;;;;5.43;2.55;;;;;;;21.74;100.00;100507.16;5032125;28;20037;-55
2023/07/08 06:02:37;;;;;;;2.83;1.95;;;;;;;21.77;100.00;100511.22;5032908;28;20034;-57
2023/07/08 06:05:03;;;;;;;5.63;2.08;;;;;;;21.88;100.00;100504.75;5027364;28;20037;-57
2023/07/08 06:07:28;;;;;;;3.35;1.73;;;;;;;21.99;100.00;100506.44;5035141;28;20029;-57
2023/07/08 06:09:55;;;;;;;2.78;1.85;;;;;;;22.07;100.00;100513.19;5029375;28;20120;-57
2023/07/08 06:12:21;;;;;;;4.15;1.98;;;;;;;22.11;100.00;100513.47;5032759;28;20504;-62
2023/07/08 06:14:47;;;;;;;2.03;1.83;;;;;;;22.13;100.00;100511.31;5041404;28;20090;-61
2023/07/08 06:17:12;;;;;;;4.88;1.88;;;;;;;22.17;100.00;100512.38;5030968;28;20037;-57
2023/07/08 06:19:37;;;;;;;4.70;2.08;;;;;;;22.19;100.00;100518.38;5032801;28;20075;-59
2023/07/08 06:22:03;;;;;;;3.65;1.42;;;;;;;22.25;100.00;100522.69;5032343;28;20025;-59
2023/07/08 06:24:29;;;;;;;2.47;2.25;;;;;;;22.32;100.00;100525.13;5032826;28;20037;-56
2023/07/08 06:26:54;;;;;;;3.70;2.25;;;;;;;22.45;100.00;100532.72;5033288;28;20433;-54
2023/07/08 06:29:19;;;;;;;2.33;1.83;;;;;;;22.46;100.00;100531.66;5032172;28;20512;-59
2023/07/08 06:31:45;;;;;;;4.10;1.88;;;;;;;22.60;100.00;100542.72;5032222;28;20132;-60
2023/07/08 06:34:10;;;;;;;5.57;2.17;;;;;;;22.57;100.00;100535.97;5035200;28;20118;-53
2023/07/08 06:36:35;;;;;;;3.38;1.90;;;;;;;22.77;100.00;100532.47;5026003;28;20121;-58
2023/07/08 06:39:01;;;;;;;4.75;1.75;;;;;;;22.98;100.00;100527.88;5033388;28;20025;-57
2023/07/08 06:41:26;;;;;;;3.05;1.58;;;;;;;23.09;100.00;100553.00;5028362;28;20433;-53
2023/07/08 06:43:52;;;;;;;2.20;2.00;;;;;;;22.95;100.00;100555.44;5027067;28;20037;-58
2023/07/08 06:46:18;;;;;;;4.70;1.88;;;;;;;23.39;100.00;100552.16;5039699;28;20033;-52
2023/07/08 06:48:44;;;;;;;2.55;2.00;;;;;;;23.64;100.00;100564.78;5032397;28;20063;-53
2023/07/08 06:51:09;;;;;;;3.08;1.60;;;;;;;23.79;100.00;100561.22;5034505;28;20116;-58
2023/07/08 06:53:34;;;;;;;4.13;2.22;;;;;;;23.90;100.00;100562.78;5030199;28;20422;-59
2023/07/08 06:56:00;;;;;;;2.10;1.45;;;;;;;24.22;100.00;100563.47;5033019;28;20044;-57
2023/07/08 06:58:25;;;;;;;3.70;1.77;;;;;;;24.46;100.00;100564.41;5024292;28;20295;-54
2023/07/08 07:00:51;;;;;;;2.88;1.48;;;;;;;24.70;100.00;100561.78;5037020;28;20029;-53
2023/07/08 07:03:16;;;;;;;2.58;1.75;;;;;;;24.51;100.00;100569.81;5034009;28;20036;-53
2023/07/08 07:05:43;;;;;;;3.70;1.92;;;;;;;24.41;100.00;100572.53;5029127;28;20774;-60
2023/07/08 07:08:08;;;;;;;5.25;2.92;;;;;;;24.28;100.00;100581.31;5036494;28;20028;-49
2023/07/08 07:10:34;;;;;;;2.97;2.10;;;;;;;24.25;100.00;100590.00;5029527;28;20048;-57
2023/07/08 07:12:59;;;;;;;4.63;2.20;;;;;;;24.24;100.00;100593.78;5029142;28;20047;-50
2023/07/08 07:15:25;;;;;;;3.30;1.63;;;;;;;24.20;100.00;100611.69;5033116;28;20029;-59
2023/07/08 07:17:50;;;;;;;3.58;1.92;;;;;;;23.82;100.00;100609.41;5033536;28;20471;-50
2023/07/08 07:20:16;;;;;;;4.10;1.90;;;;;;;23.99;100.00;100608.28;5037513;28;20029;-54
2023/07/08 07:22:41;;;;;;;6.95;2.20;;;;;;;23.78;100.00;100611.06;5041722;28;20021;-62
2023/07/08 07:25:07;;;;;;;3.10;1.48;;;;;;;23.76;100.00;100617.84;5031568;28;20032;-53
2023/07/08 07:27:32;;;;;;;4.05;2.50;;;;;;;23.94;100.00;100611.81;5030806;28;20403;-58
2023/07/08 07:30:00;;;;;;;2.72;1.48;;;;;;;24.20;100.00;100600.84;5031100;28;20069;-59
2023/07/08 07:32:26;;;;;;;4.47;2.17;;;;;;;24.40;100.00;100611.59;5034049;28;20026;-55
2023/07/08 07:34:52;;;;;;;2.70;2.03;;;;;;;24.58;100.00;100610.97;5038628;28;20103;-60
2023/07/08 07:37:20;;;;;;;5.38;2.08;;;;;;;24.51;100.00;100607.75;5033841;28;20102;-58
2023/07/08 07:39:46;;;;;;;3.03;2.13;;;;;;;24.69;100.00;100605.47;5035112;28;20033;-56
2023/07/08 07:42:12;;;;;;;2.42;1.50;;;;;;;24.82;100.00;100607.53;5037526;28;20040;-53
2023/07/08 07:44:40;;;;;;;7.13;2.38;;;;;;;24.59;100.00;100607.13;5033698;28;20029;-60
2023/07/08 07:47:07;;;;;;;2.08;1.33;;;;;;;24.97;100.00;100609.31;5033972;28;20530;-58
2023/07/08 07:49:33;;;;;;;3.08;1.73;;;;;;;25.14;100.00;100609.69;5033778;28;20069;-58
2023/07/08 07:51:58;;;;;;;2.72;1.75;;;;;;;25.27;100.00;100616.38;5039895;28;20059;-62
2023/07/08 07:54:23;;;;;;;2.53;1.60;;;;;;;25.31;100.00;100603.06;5035948;28;20602;-62
2023/07/08 07:56:49;;;;;;;2.78;1.80;;;;;;;25.19;100.00;100619.72;5026944;28;20031;-62
2023/07/08 07:59:14;;;;;;;4.07;2.08;;;;;;;25.26;100.00;100633.78;5031866;28;20355;-51
2023/07/08 08:01:41;;;;;;;4.43;1.63;;;;;;;25.17;100.00;100638.19;5033353;28;20120;-62
2023/07/08 08:04:08;;;;;;;5.40;1.70;;;;;;;25.18;100.00;100634.38;5030162;28;20333;-60
2023/07/08 08:06:33;;;;;;;5.20;2.13;;;;;;;24.96;100.00;100632.91;5040430;28;20062;-60
2023/07/08 08:08:59;;;;;;;2.05;1.67;;;;;;;24.84;100.00;100629.75;5038011;28;20029;-62
2023/07/08 08:11:25;;;;;;;2.92;1.60;;;;;;;24.78;100.00;100637.13;5032716;28;20112;-61
2023/07/08 08:13:51;;;;;;;1.83;1.30;;;;;;;24.84;100.00;100643.31;5035848;28;20401;-60
2023/07/08 08:16:16;;;;;;;2.67;1.90;;;;;;;24.93;100.00;100636.19;5025828;28;20030;-59
2023/07/08 08:18:41;;;;;;;1.70;1.60;;;;;;;24.91;100.00;100651.13;5026626;28;20029;-61
2023/07/08 08:21:07;;;;;;;3.55;2.42;;;;;;;24.83;100.00;100676.94;5026679;28;20042;-52
2023/07/08 08:23:32;;;;;;;3.92;2.35;;;;;;;24.66;100.00;100692.78;5029106;28;20118;-55
2023/07/08 08:25:57;;;;;;;2.88;1.35;;;;;;;24.32;100.00;100699.69;5032085;28;20044;-60
2023/07/08 08:28:23;;;;;;;4.85;2.03;;;;;;;24.27;100.00;100686.16;5028742;28;20036;-50
2023/07/08 08:30:49;;;;;;;2.85;1.27;;;;;;;24.35;100.00;100687.47;5032795;28;20117;-61
2023/07/08 08:33:14;;;;;;;5.13;2.45;;;;;;;24.52;100.00;100706.91;5032890;28;20041;-61
2023/07/08 08:35:42;;;;;;;2.42;1.60;;;;;;;24.62;100.00;100703.34;5027074;28;20032;-54
2023/07/08 08:38:07;;;;;;;2.60;1.52;;;;;;;24.63;100.00;100698.75;5031559;28;20037;-61
2023/07/08 08:40:33;;;;;;;2.35;2.03;;;;;;;24.77;100.00;100691.63;5031713;28;20252;-59
2023/07/08 08:43:22;;;;;;;3.92;2.08;;;;;;;25.21;100.00;100691.59;5027465;28;20060;-60
2023/07/08 08:45:57;;;;;;;4.05;2.88;;;;;;;25.39;100.00;100690.09;5025565;28;20874;-57
2023/07/08 08:48:24;;;;;;;3.85;2.10;;;;;;;25.35;100.00;100705.34;5034465;28;20040;-62
2023/07/08 08:51:02;;;;;;;10.10;1.67;;;;;;;25.62;100.00;100698.59;5047200;28;20040;-59
2023/07/08 08:53:27;;;;;;;2.90;1.55;;;;;;;25.41;100.00;100698.75;5028483;28;20553;-59
2023/07/08 08:56:03;;;;;;;2.42;1.65;;;;;;;25.57;100.00;100690.47;5035067;28;20029;-54
2023/07/08 08:58:45;;;;;;;3.80;1.73;;;;;;;25.71;100.00;100693.31;5038078;28;20415;-62
2023/07/08 09:01:16;;;;;;;3.25;1.55;;;;;;;25.92;100.00;100696.66;5038926;28;20136;-64
2023/07/08 09:03:47;;;;;;;1.67;1.10;;;;;;;26.00;100.00;100701.50;5028907;28;20037;-63
2023/07/08 09:06:20;;;;;;;2.00;1.15;;;;;;;25.95;100.00;100694.19;5023883;28;20036;-55
2023/07/08 09:08:46;;;;;;;4.32;1.65;;;;;;;25.98;100.00;100695.53;5027385;28;20041;-63
2023/07/08 09:11:35;;;;;;;1.17;1.05;;;;;;;26.34;100.00;100698.63;5033610;28;20444;-59
2023/07/08 09:14:01;;;;;;;6.97;1.60;;;;;;;26.41;100.00;100692.81;5019618;28;20037;-64
2023/07/08 09:16:48;;;;;;;2.60;1.08;;;;;;;26.32;100.00;100693.47;5033436;28;20029;-64
2023/07/08 09:19:24;;;;;;;1.67;1.13;;;;;;;26.46;100.00;100687.31;5034025;28;20029;-63
2023/07/08 09:22:03;;;;;;;3.25;0.80;;;;;;;26.48;100.00;100677.75;5036389;28;20242;-66
2023/07/08 09:24:59;;;;;;;3.55;1.65;;;;;;;26.76;100.00;100676.03;5031654;28;20344;-64
2023/07/08 09:27:24;;;;;;;2.40;1.00;;;;;;;27.00;100.00;100688.72;5025868;28;20041;-63
2023/07/08 09:29:49;;;;;;;1.52;0.90;;;;;;;26.67;100.00;100696.06;5035103;28;20028;-65
2023/07/08 09:32:24;;;;;;;2.40;0.90;;;;;;;26.16;100.00;100697.47;5039057;28;20036;-65
2023/07/08 09:34:51;;;;;;;0.85;0.77;;;;;;;26.41;100.00;100704.53;5035956;28;20045;-62
2023/07/08 09:37:27;;;;;;;1.25;0.55;;;;;;;26.78;100.00;100707.59;5031834;28;20452;-64
2023/07/08 09:39:54;;;;;;;0.68;0.63;;;;;;;26.99;100.00;100708.91;5035870;28;20040;-62
2023/07/08 09:42:24;;;;;;;4.30;0.90;;;;;;;27.16;100.00;100709.16;5037408;28;20079;-58
2023/07/08 09:44:56;;;;;;;2.70;0.90;;;;;;;27.27;100.00;100714.47;5034276;28;20048;-48
2023/07/08 09:47:25;;;;;;;4.30;0.90;;;;;;;27.40;100.00;100716.44;5038925;28;20029;-63
2023/07/08 09:49:52;;;;;;;3.15;1.10;;;;;;;27.31;100.00;100719.03;5032704;28;20075;-65
2023/07/08 09:52:17;;;;;;;1.50;0.77;;;;;;;27.02;100.00;100724.63;5045034;28;20035;-64
2023/07/08 09:54:42;;;;;;;1.83;1.05;;;;;;;27.07;100.00;100731.91;5033164;28;20025;-63
2023/07/08 09:57:28;;;;;;;2.00;1.05;;;;;;;27.11;100.00;100733.75;5034998;28;20037;-60
2023/07/08 10:00:11;;;;;;;0.82;0.82;;;;;;;27.14;100.00;100726.91;5036692;28;20356;-65
2023/07/08 10:02:40;;;;;;;3.15;0.85;;;;;;;27.27;100.00;100736.25;5040333;28;20100;-64
2023/07/08 10:05:32;;;;;;;2.05;1.55;;;;;;;27.19;100.00;100726.84;5033510;28;20087;-56
2023/07/08 10:07:58;;;;;;;7.03;0.65;;;;;;;27.34;100.00;100728.53;5035303;28;20026;-63
2023/07/08 10:10:33;;;;;;;2.17;1.10;;;;;;;27.31;100.00;100731.81;5036575;28;20025;-63
2023/07/08 10:13:03;;;;;;;0.90;0.85;;;;;;;27.31;100.00;100737.25;5035494;28;20707;-60
2023/07/08 10:15:47;;;;;;;1.50;1.00;;;;;;;27.22;100.00;100748.03;5037365;28;20021;-63
2023/07/08 10:18:21;;;;;;;2.50;1.00;;;;;;;26.97;100.00;100771.75;5034202;28;20036;-64
2023/07/08 10:20:55;;;;;;;2.45;0.82;;;;;;;26.62;100.00;100770.34;5032984;28;20044;-64
2023/07/08 10:23:50;;;;;;;1.50;0.75;;;;;;;26.55;100.00;100767.16;5035233;28;20044;-54
2023/07/08 10:26:26;;;;;;;2.92;1.42;;;;;;;26.63;100.00;100766.50;5034378;28;20478;-60
2023/07/08 10:29:09;;;;;;;7.20;1.58;;;;;;;26.59;100.00;100779.09;5031829;28;20496;-57
2023/07/08 10:31:50;;;;;;;3.92;1.48;;;;;;;26.37;100.00;100800.53;5035655;28;20082;-58
2023/07/08 10:34:33;;;;;;;3.17;1.13;;;;;;;26.25;100.00;100814.50;5034727;28;20025;-54
2023/07/08 10:37:09;;;;;;;2.38;1.02;;;;;;;26.01;100.00;100831.56;5033644;28;20047;-61
2023/07/08 10:39:57;;;;;;;2.60;0.93;;;;;;;25.91;100.00;100833.59;5035184;28;20363;-54
2023/07/08 10:42:43;;;;;;;5.25;1.08;;;;;;;25.93;100.00;100845.78;5034850;28;20085;-63
2023/07/08 10:45:26;;;;;;;1.33;0.70;;;;;;;25.72;100.00;100861.41;5034132;28;20036;-53
2023/07/08 10:48:04;;;;;;;1.98;0.80;;;;;;;25.66;100.00;100870.66;5038058;28;20037;-63
2023/07/08 10:50:51;;;;;;;3.47;1.17;;;;;;;25.38;100.00;100883.09;5035106;28;20040;-55
2023/07/08 10:53:36;;;;;;;2.05;1.85;;;;;;;25.03;100.00;100882.13;5028122;28;20025;-51
2023/07/08 10:56:04;;;;;;;3.33;1.17;;;;;;;24.65;100.00;100886.31;5032454;28;20123;-54
2023/07/08 10:58:35;;;;;;;4.50;1.30;;;;;;;24.48;100.00;100876.63;5032234;28;20829;-51
2023/07/08 11:01:19;;;;;;;;;;;;;;;24.45;100.00;100885.31;5034490;28;20127;-55
2023/07/08 11:04:03;;;;;;;2.85;1.27;;;;;;;24.15;100.00;100884.22;5033848;28;19925;-49
2023/07/08 11:06:52;;;;;;;2.08;1.15;;;;;;;23.92;100.00;100879.34;5031839;28;20044;-51
2023/07/08 11:09:26;;;;;;;1.60;1.13;;;;;;;23.71;100.00;100862.25;5022245;28;20041;-61
2023/07/08 11:11:59;;;;;;;2.17;1.05;;;;;;;23.52;100.00;100848.44;5032527;28;20095;-59
2023/07/08 11:14:27;;;;;;;2.85;1.50;;;;;;;23.35;100.00;100845.16;5032828;28;20032;-58
2023/07/08 11:17:05;;;;;;;5.90;2.45;;;;;;;23.28;100.00;100829.16;5032879;28;20027;-57
2023/07/08 11:19:48;;;;;;;3.83;1.02;;;;;;;23.10;100.00;100825.06;5031517;28;20670;-56
2023/07/08 11:22:15;;;;;;;3.00;0.70;;;;;;;22.82;100.00;100840.63;5031779;28;20033;-52
2023/07/08 11:24:47;;;;;;;2.20;1.08;;;;;;;22.85;100.00;100818.47;5030489;28;20962;-57